createdAt,value
2018-11-03T00:01:05.765Z,68.24
2018-11-03T00:03:36.762Z,68.47
2018-11-03T00:06:05.640Z,68.52
2018-11-03T00:08:34.571Z,68.34
2018-11-03T00:13:53.897Z,68.65
2018-11-03T00:16:24.913Z,68.52
2018-11-03T00:18:55.857Z,68.58
2018-11-03T00:21:25.063Z,68.49
2018-11-03T00:23:54.311Z,68.40
2018-11-03T00:26:24.081Z,68.48
2018-11-03T00:28:52.959Z,68.17
2018-11-03T00:31:21.724Z,68.41
2018-11-03T00:33:50.572Z,68.30
2018-11-03T00:36:19.932Z,67.80
2018-11-03T00:38:48.856Z,68.46
2018-11-03T00:41:17.784Z,68.77
2018-11-03T00:43:46.638Z,68.57
2018-11-03T00:46:15.517Z,68.61
2018-11-03T00:48:44.266Z,68.59
2018-11-03T00:51:13.119Z,68.39
2018-11-03T00:53:42.032Z,68.72
2018-11-03T00:56:12.612Z,68.33
2018-11-03T00:58:41.521Z,68.36
2018-11-03T01:01:10.406Z,68.31
2018-11-03T01:03:39.263Z,68.38
2018-11-03T01:06:08.487Z,68.85
2018-11-03T01:08:37.480Z,68.88
2018-11-03T01:11:06.761Z,68.98
2018-11-03T01:13:35.646Z,68.59
2018-11-03T01:16:04.745Z,68.90
2018-11-03T01:18:33.708Z,68.79
2018-11-03T01:21:02.627Z,68.61
2018-11-03T01:23:32.851Z,68.74
2018-11-03T01:26:04.163Z,68.50
2018-11-03T01:28:36.901Z,68.64
2018-11-03T01:31:13.191Z,68.54
2018-11-03T01:34:02.776Z,68.36
2018-11-03T01:39:17.232Z,68.33
2018-11-03T01:41:46.733Z,68.69
2018-11-03T01:44:16.115Z,68.42
2018-11-03T01:46:44.902Z,68.95
2018-11-03T01:49:14.869Z,68.80
2018-11-03T01:51:43.802Z,69.04
2018-11-03T01:54:13.084Z,68.99
2018-11-03T01:56:42.174Z,69.67
2018-11-03T01:59:11.432Z,69.46
2018-11-03T02:04:43.473Z,69.20
2018-11-03T02:07:13.010Z,69.00
2018-11-03T02:09:42.564Z,69.28
2018-11-03T02:12:39.202Z,69.64
2018-11-03T02:15:16.264Z,69.50
2018-11-03T02:17:45.788Z,69.68
2018-11-03T02:20:14.608Z,70.09
2018-11-03T02:22:43.526Z,70.13
2018-11-03T02:25:12.439Z,69.79
2018-11-03T02:27:43.282Z,69.48
2018-11-03T02:30:12.802Z,69.70
2018-11-03T02:32:43.827Z,69.84
2018-11-03T02:35:12.803Z,69.94
2018-11-03T02:37:42.328Z,70.73
2018-11-03T02:40:12.906Z,70.88
2018-11-03T02:42:42.343Z,71.11
2018-11-03T02:45:12.901Z,71.52
2018-11-03T02:47:47.938Z,71.74
2018-11-03T02:50:16.702Z,71.41
2018-11-03T02:52:45.621Z,72.06
2018-11-03T02:55:14.959Z,71.98
2018-11-03T02:57:43.895Z,72.23
2018-11-03T03:00:12.942Z,71.82
2018-11-03T03:02:41.917Z,71.97
2018-11-03T03:05:11.464Z,71.88
2018-11-03T03:07:40.766Z,71.93
2018-11-03T03:10:11.594Z,71.81
2018-11-03T03:12:40.464Z,72.06
2018-11-03T03:15:11.331Z,72.13
2018-11-03T03:17:40.410Z,71.66
2018-11-03T03:20:11.798Z,71.68
2018-11-03T03:22:42.730Z,72.06
2018-11-03T03:25:12.852Z,71.78
2018-11-03T03:27:41.883Z,71.78
2018-11-03T03:30:11.122Z,71.78
2018-11-03T03:32:40.256Z,71.77
2018-11-03T03:35:09.442Z,71.82
2018-11-03T03:37:38.420Z,71.37
2018-11-03T03:40:08.399Z,71.10
2018-11-03T03:42:37.384Z,70.74
2018-11-03T03:45:08.879Z,70.84
2018-11-03T03:47:38.304Z,70.87
2018-11-03T03:50:08.266Z,71.03
2018-11-03T03:52:37.138Z,71.23
2018-11-03T03:55:06.511Z,71.63
2018-11-03T03:57:35.622Z,71.86
2018-11-03T04:00:04.539Z,71.59
2018-11-03T04:02:34.944Z,70.87
2018-11-03T04:05:03.961Z,70.64
2018-11-03T04:07:32.953Z,70.98
2018-11-03T04:10:01.888Z,70.78
2018-11-03T04:12:31.373Z,70.93
2018-11-03T04:15:01.093Z,70.46
2018-11-03T04:17:30.044Z,70.16
2018-11-03T04:19:59.124Z,70.71
2018-11-03T04:22:31.181Z,70.70
2018-11-03T04:25:01.021Z,70.40
2018-11-03T04:27:30.568Z,70.98
2018-11-03T04:29:59.659Z,71.03
2018-11-03T04:32:28.635Z,71.45
2018-11-03T04:34:57.715Z,71.54
2018-11-03T04:37:26.690Z,71.75
2018-11-03T04:39:55.943Z,71.07
2018-11-03T04:42:25.594Z,71.56
2018-11-03T04:44:56.299Z,71.36
2018-11-03T04:47:25.244Z,71.61
2018-11-03T04:49:59.876Z,71.74
2018-11-03T04:52:28.835Z,71.73
2018-11-03T04:54:58.054Z,71.50
2018-11-03T04:57:27.214Z,71.45
2018-11-03T04:59:57.835Z,71.54
2018-11-03T05:02:26.684Z,71.96
2018-11-03T05:04:55.651Z,71.69
2018-11-03T05:07:24.528Z,71.96
2018-11-03T05:09:53.552Z,71.89
2018-11-03T05:12:22.784Z,71.78
2018-11-03T05:14:51.650Z,71.84
2018-11-03T05:17:20.514Z,71.47
2018-11-03T05:19:51.938Z,71.54
2018-11-03T05:22:22.129Z,71.35
2018-11-03T05:24:51.099Z,71.87
2018-11-03T05:27:19.984Z,71.82
2018-11-03T05:29:48.981Z,71.57
2018-11-03T05:32:17.815Z,71.00
2018-11-03T05:34:46.898Z,70.88
2018-11-03T05:37:15.761Z,70.77
2018-11-03T05:39:44.698Z,70.97
2018-11-03T05:42:13.640Z,70.78
2018-11-03T05:44:42.535Z,70.55
2018-11-03T05:47:11.836Z,70.47
2018-11-03T05:49:42.332Z,70.32
2018-11-03T05:52:13.739Z,70.21
2018-11-03T05:54:42.850Z,70.34
2018-11-03T05:57:11.786Z,70.43
2018-11-03T05:59:40.792Z,70.45
2018-11-03T06:02:10.036Z,70.66
2018-11-03T06:04:39.028Z,70.36
2018-11-03T06:07:07.974Z,70.27
2018-11-03T06:09:36.949Z,70.40
2018-11-03T06:12:06.795Z,70.47
2018-11-03T06:14:35.898Z,70.30
2018-11-03T06:17:04.833Z,71.05
2018-11-03T06:19:33.714Z,70.73
2018-11-03T06:22:02.712Z,70.42
2018-11-03T06:24:31.583Z,70.42
2018-11-03T06:27:00.462Z,70.73
2018-11-03T06:29:29.402Z,70.77
2018-11-03T06:31:58.306Z,70.70
2018-11-03T06:34:28.963Z,70.68
2018-11-03T06:37:06.688Z,70.19
2018-11-03T06:39:40.738Z,70.49
2018-11-03T06:42:09.628Z,70.05
2018-11-03T06:44:38.545Z,70.25
2018-11-03T06:47:08.370Z,70.00
2018-11-03T06:49:37.565Z,70.03
2018-11-03T06:52:07.082Z,69.76
2018-11-03T06:54:36.680Z,70.41
2018-11-03T06:57:07.318Z,70.21
2018-11-03T06:59:37.088Z,70.44
2018-11-03T07:02:06.619Z,70.63
2018-11-03T07:04:36.887Z,69.86
2018-11-03T07:07:06.272Z,70.01
2018-11-03T07:09:37.090Z,70.13
2018-11-03T07:12:06.608Z,70.34
2018-11-03T07:14:37.191Z,70.58
2018-11-03T07:17:07.014Z,70.68
2018-11-03T07:19:36.342Z,70.16
2018-11-03T07:22:05.852Z,70.02
2018-11-03T07:24:34.918Z,69.62
2018-11-03T07:27:04.151Z,69.42
2018-11-03T07:29:33.903Z,69.34
2018-11-03T07:32:03.759Z,69.86
2018-11-03T07:34:32.907Z,69.89
2018-11-03T07:37:05.048Z,69.15
2018-11-03T07:39:33.911Z,68.47
2018-11-03T07:42:05.272Z,68.70
2018-11-03T07:44:34.479Z,68.56
2018-11-03T07:47:03.637Z,68.42
2018-11-03T07:49:34.367Z,67.75
2018-11-03T07:54:55.705Z,68.24
2018-11-03T07:57:25.271Z,67.67
2018-11-03T07:59:56.259Z,68.22
2018-11-03T08:02:27.860Z,67.41
2018-11-03T08:04:56.952Z,67.63
2018-11-03T08:07:26.821Z,68.25
2018-11-03T08:09:56.404Z,67.44
2018-11-03T08:12:25.462Z,67.25
2018-11-03T08:14:57.600Z,67.58
2018-11-03T08:17:26.697Z,66.96
2018-11-03T08:19:55.791Z,67.70
2018-11-03T08:22:24.916Z,67.98
2018-11-03T08:24:54.645Z,66.71
2018-11-03T08:27:24.590Z,67.19
2018-11-03T08:29:57.830Z,66.91
2018-11-03T08:32:27.319Z,67.87
2018-11-03T08:34:57.359Z,66.92
2018-11-03T08:37:27.864Z,66.87
2018-11-03T08:39:57.814Z,66.34
2018-11-03T08:42:27.048Z,65.36
2018-11-03T08:44:59.382Z,65.55
2018-11-03T08:47:28.430Z,64.79
2018-11-03T08:49:57.487Z,66.07
2018-11-03T08:52:26.391Z,65.17
2018-11-03T08:54:55.315Z,65.15
2018-11-03T08:57:24.435Z,64.54
2018-11-03T08:59:55.283Z,65.21
2018-11-03T09:02:24.196Z,65.68
2018-11-03T09:04:53.160Z,66.27
2018-11-03T09:07:22.053Z,66.16
2018-11-03T09:09:51.587Z,65.38
2018-11-03T09:12:20.535Z,64.97
2018-11-03T09:14:49.376Z,64.66
2018-11-03T09:17:18.309Z,64.67
2018-11-03T09:19:47.187Z,64.85
2018-11-03T09:22:16.523Z,65.76
2018-11-03T09:24:45.382Z,65.79
2018-11-03T09:27:14.204Z,64.82
2018-11-03T09:29:43.217Z,65.03
2018-11-03T09:32:12.345Z,64.91
2018-11-03T09:34:41.468Z,65.07
2018-11-03T09:37:10.328Z,64.70
2018-11-03T09:39:40.718Z,64.12
2018-11-03T09:42:09.574Z,64.84
2018-11-03T09:44:38.541Z,64.66
2018-11-03T09:47:07.426Z,63.77
2018-11-03T09:49:36.324Z,63.92
2018-11-03T09:52:05.315Z,62.63
2018-11-03T09:54:34.328Z,63.94
2018-11-03T09:57:04.224Z,63.99
2018-11-03T09:59:33.183Z,62.84
2018-11-03T10:02:02.057Z,62.40
2018-11-03T10:04:31.165Z,64.05
2018-11-03T10:07:00.116Z,63.66
2018-11-03T10:09:28.999Z,64.16
2018-11-03T10:11:57.863Z,63.67
2018-11-03T10:14:28.141Z,63.32
2018-11-03T10:16:56.971Z,62.61
2018-11-03T10:19:25.923Z,62.05
2018-11-03T10:21:54.843Z,61.43
2018-11-03T10:24:23.940Z,62.95
2018-11-03T10:26:59.419Z,62.27
2018-11-03T10:29:32.162Z,61.73
2018-11-03T10:32:01.248Z,60.54
2018-11-03T10:34:32.191Z,59.98
2018-11-03T10:37:01.072Z,62.22
2018-11-03T10:39:30.014Z,62.29
2018-11-03T10:41:58.947Z,61.35
2018-11-03T10:44:27.886Z,60.79
2018-11-03T10:46:56.899Z,60.90
2018-11-03T10:49:32.230Z,60.01
2018-11-03T10:52:01.175Z,59.89
2018-11-03T10:54:30.235Z,59.51
2018-11-03T10:56:59.252Z,58.61
2018-11-03T10:59:28.137Z,58.65
2018-11-03T11:02:02.421Z,58.27
2018-11-03T11:04:36.598Z,56.60
2018-11-03T11:07:10.973Z,56.66
2018-11-03T11:09:44.854Z,56.79
2018-11-03T11:12:46.364Z,55.39
2018-11-03T11:15:15.428Z,55.34
2018-11-03T11:17:44.557Z,56.04
2018-11-03T11:20:13.391Z,57.76
2018-11-03T11:22:42.324Z,56.43
2018-11-03T11:25:12.222Z,56.44
2018-11-03T11:27:41.209Z,56.12
2018-11-03T11:30:14.981Z,56.28
2018-11-03T11:32:45.170Z,56.09
2018-11-03T11:35:14.108Z,58.01
2018-11-03T11:37:43.104Z,57.11
2018-11-03T11:40:11.973Z,55.40
2018-11-03T11:45:35.013Z,55.10
2018-11-03T11:48:04.026Z,55.72
2018-11-03T11:50:33.020Z,54.17
2018-11-03T11:53:02.035Z,54.90
2018-11-03T11:55:30.995Z,53.93
2018-11-03T11:58:00.060Z,54.01
2018-11-03T12:00:29.066Z,54.80
2018-11-03T12:02:58.010Z,53.48
2018-11-03T12:05:27.115Z,53.83
2018-11-03T12:07:56.278Z,55.40
2018-11-03T12:10:25.147Z,54.04
2018-11-03T12:12:54.255Z,53.72
2018-11-03T12:15:23.722Z,54.47
2018-11-03T12:17:53.174Z,55.08
2018-11-03T12:20:22.093Z,54.46
2018-11-03T12:22:50.972Z,54.03
2018-11-03T12:25:20.123Z,55.03
2018-11-03T12:27:49.095Z,55.01
2018-11-03T12:30:18.177Z,54.13
2018-11-03T12:32:47.132Z,55.37
2018-11-03T12:35:16.177Z,54.95
2018-11-03T12:37:46.085Z,54.87
2018-11-03T12:40:16.071Z,54.89
2018-11-03T12:42:45.027Z,55.73
2018-11-03T12:45:14.274Z,54.22
2018-11-03T12:47:43.366Z,54.38
2018-11-03T12:50:14.140Z,52.85
2018-11-03T12:52:43.371Z,53.08
2018-11-03T12:55:12.472Z,52.39
2018-11-03T12:57:42.484Z,51.92
2018-11-03T13:00:13.775Z,53.25
2018-11-03T13:02:44.914Z,54.09
2018-11-03T13:05:14.268Z,53.26
2018-11-03T13:07:44.525Z,53.96
2018-11-03T13:10:13.492Z,54.31
2018-11-03T13:12:43.161Z,54.81
2018-11-03T13:15:13.319Z,53.38
2018-11-03T13:17:42.320Z,53.73
2018-11-03T13:20:13.205Z,53.36
2018-11-03T13:22:43.039Z,52.98
2018-11-03T13:25:12.559Z,54.34
2018-11-03T13:27:41.992Z,53.31
2018-11-03T13:30:13.078Z,54.35
2018-11-03T13:32:42.455Z,54.71
2018-11-03T13:35:12.356Z,53.31
2018-11-03T13:37:41.557Z,54.74
2018-11-03T13:40:11.984Z,55.82
2018-11-03T13:42:41.203Z,56.12
2018-11-03T13:45:10.738Z,56.06
2018-11-03T13:47:40.511Z,55.63
2018-11-03T13:50:12.542Z,55.38
2018-11-03T13:52:43.257Z,55.31
2018-11-03T13:55:12.326Z,55.84
2018-11-03T13:57:42.450Z,54.18
2018-11-03T14:00:13.924Z,55.25
2018-11-03T14:02:45.296Z,55.27
2018-11-03T14:05:14.940Z,56.17
2018-11-03T14:07:44.010Z,57.48
2018-11-03T14:10:14.633Z,57.89
2018-11-03T14:12:44.612Z,58.14
2018-11-03T14:15:15.588Z,59.24
2018-11-03T14:17:52.788Z,59.21
2018-11-03T14:20:22.408Z,59.42
2018-11-03T14:22:52.874Z,59.06
2018-11-03T14:25:23.268Z,58.48
2018-11-03T14:27:57.742Z,58.67
2018-11-03T14:30:26.872Z,58.83
2018-11-03T14:32:56.106Z,58.71
2018-11-03T14:35:25.509Z,59.06
2018-11-03T14:37:54.550Z,59.82
2018-11-03T14:40:24.045Z,59.84
2018-11-03T14:42:53.430Z,60.51
2018-11-03T14:45:22.881Z,59.80
2018-11-03T14:47:52.112Z,60.34
2018-11-03T14:50:21.287Z,60.63
2018-11-03T14:52:50.223Z,61.04
2018-11-03T14:55:25.916Z,59.89
2018-11-03T14:57:54.911Z,59.86
2018-11-03T15:00:23.875Z,59.94
2018-11-03T15:02:53.032Z,60.06
2018-11-03T15:05:28.956Z,59.81
2018-11-03T15:07:59.712Z,60.44
2018-11-03T15:10:28.605Z,60.58
2018-11-03T15:12:57.496Z,60.69
2018-11-03T15:15:26.970Z,60.85
2018-11-03T15:17:56.205Z,60.45
2018-11-03T15:20:25.218Z,60.89
2018-11-03T15:22:54.177Z,61.47
2018-11-03T15:25:23.557Z,61.58
2018-11-03T15:27:53.050Z,61.74
2018-11-03T15:30:22.087Z,62.18
2018-11-03T15:32:51.301Z,62.62
2018-11-03T15:35:29.684Z,62.93
2018-11-03T15:37:58.853Z,63.26
2018-11-03T15:40:27.888Z,63.61
2018-11-03T15:42:57.082Z,63.89
2018-11-03T15:45:26.032Z,63.78
2018-11-03T15:47:55.511Z,63.90
2018-11-03T15:50:26.423Z,63.66
2018-11-03T15:53:02.246Z,64.16
2018-11-03T15:55:31.090Z,64.21
2018-11-03T15:58:00.066Z,64.46
2018-11-03T16:00:29.316Z,64.36
2018-11-03T16:02:58.796Z,64.40
2018-11-03T16:05:30.085Z,64.47
2018-11-03T16:08:02.389Z,64.84
2018-11-03T16:10:41.885Z,64.67
2018-11-03T16:13:12.916Z,64.79
2018-11-03T16:15:41.915Z,64.87
2018-11-03T16:18:10.877Z,64.75
2018-11-03T16:20:40.466Z,65.18
2018-11-03T16:23:09.464Z,64.95
2018-11-03T16:25:38.487Z,65.01
2018-11-03T16:28:08.204Z,64.94
2018-11-03T16:30:37.173Z,65.01
2018-11-03T16:33:06.119Z,64.89
2018-11-03T16:35:35.287Z,65.11
2018-11-03T16:38:07.160Z,64.55
2018-11-03T16:40:36.451Z,65.09
2018-11-03T16:43:06.083Z,64.92
2018-11-03T16:45:35.147Z,65.31
2018-11-03T16:48:04.564Z,65.62
2018-11-03T16:50:48.183Z,65.65
2018-11-03T16:53:23.116Z,66.13
2018-11-03T16:55:52.945Z,65.71
2018-11-03T16:58:22.243Z,65.94
2018-11-03T17:00:51.355Z,66.16
2018-11-03T17:03:20.512Z,66.66
2018-11-03T17:05:49.958Z,66.50
2018-11-03T17:08:22.573Z,66.23
2018-11-03T17:10:56.827Z,66.39
2018-11-03T17:13:26.631Z,66.40
2018-11-03T17:15:55.673Z,66.72
2018-11-03T17:18:24.779Z,66.84
2018-11-03T17:20:53.928Z,66.50
2018-11-03T17:23:23.065Z,66.65
2018-11-03T17:25:52.215Z,66.77
2018-11-03T17:28:22.347Z,66.67
2018-11-03T17:30:51.664Z,67.06
2018-11-03T17:33:21.384Z,66.93
2018-11-03T17:35:50.511Z,67.10
2018-11-03T17:38:19.925Z,67.16
2018-11-03T17:40:49.053Z,66.79
2018-11-03T17:43:18.735Z,67.29
2018-11-03T17:45:47.954Z,67.17
2018-11-03T17:48:17.165Z,67.44
2018-11-03T17:50:58.952Z,67.16
2018-11-03T17:53:28.144Z,67.27
2018-11-03T17:55:57.088Z,66.66
2018-11-03T17:58:26.148Z,66.79
2018-11-03T18:00:55.236Z,66.54
2018-11-03T18:03:24.450Z,66.67
2018-11-03T18:05:53.564Z,67.35
2018-11-03T18:08:38.856Z,67.29
2018-11-03T18:11:07.823Z,66.49
2018-11-03T18:13:37.261Z,66.76
2018-11-03T18:16:07.296Z,66.91
2018-11-03T18:18:36.457Z,66.64
2018-11-03T18:21:05.450Z,66.91
2018-11-03T18:23:42.593Z,66.95
2018-11-03T18:26:12.333Z,66.76
2018-11-03T18:28:41.427Z,66.14
2018-11-03T18:31:12.958Z,66.52
2018-11-03T18:33:42.087Z,66.57
2018-11-03T18:36:11.351Z,66.20
2018-11-03T18:38:40.350Z,66.32
2018-11-03T18:41:09.608Z,66.10
2018-11-03T18:43:38.741Z,66.70
2018-11-03T18:46:07.682Z,66.46
2018-11-03T18:48:36.730Z,65.88
2018-11-03T18:51:05.841Z,65.76
2018-11-03T18:53:36.019Z,66.15
2018-11-03T18:56:05.359Z,65.96
2018-11-03T18:58:56.397Z,66.22
2018-11-03T19:01:36.523Z,66.16
2018-11-03T19:04:05.544Z,66.34
2018-11-03T19:06:34.941Z,66.38
2018-11-03T19:09:04.534Z,66.92
2018-11-03T19:11:33.534Z,66.40
2018-11-03T19:14:02.490Z,66.03
2018-11-03T19:16:31.513Z,66.74
2018-11-03T19:19:00.543Z,67.21
2018-11-03T19:21:29.594Z,66.56
2018-11-03T19:24:19.808Z,67.31
2018-11-03T19:27:01.584Z,66.56
2018-11-03T19:29:30.892Z,66.91
2018-11-03T19:31:59.987Z,66.65
2018-11-03T19:34:29.755Z,67.04
2018-11-03T19:36:58.634Z,67.51
2018-11-03T19:39:27.900Z,66.97
2018-11-03T19:41:57.084Z,67.57
2018-11-03T19:44:26.157Z,67.67
2018-11-03T19:46:55.160Z,67.74
2018-11-03T19:49:24.185Z,67.79
2018-11-03T19:51:53.684Z,67.82
2018-11-03T19:54:24.708Z,67.85
2018-11-03T19:56:53.643Z,68.11
2018-11-03T19:59:22.786Z,68.22
2018-11-03T20:01:52.495Z,68.42
2018-11-03T20:04:22.000Z,68.60
2018-11-03T20:06:50.875Z,68.68
2018-11-03T20:09:20.496Z,68.70
2018-11-03T20:11:51.947Z,68.96
2018-11-03T20:14:21.169Z,68.74
2018-11-03T20:16:50.336Z,68.80
2018-11-03T20:19:21.424Z,68.73
2018-11-03T20:21:53.492Z,69.03
2018-11-03T20:24:24.425Z,68.81
2018-11-03T20:26:56.512Z,69.06
2018-11-03T20:29:26.531Z,68.93
2018-11-03T20:31:56.950Z,69.64
2018-11-03T20:34:27.155Z,69.39
2018-11-03T20:36:56.671Z,69.37
2018-11-03T20:39:26.116Z,69.43
2018-11-03T20:43:34.749Z,69.40
2018-11-03T20:46:03.875Z,69.63
2018-11-03T20:48:33.118Z,70.08
2018-11-03T20:51:07.570Z,70.10
2018-11-03T20:53:37.400Z,69.94
2018-11-03T20:56:07.057Z,70.21
2018-11-03T20:58:36.252Z,69.63
2018-11-03T21:01:05.788Z,69.29
2018-11-03T21:03:35.164Z,70.13
2018-11-03T21:06:04.343Z,70.49
2018-11-03T21:08:33.765Z,69.43
2018-11-03T21:11:02.619Z,70.20
2018-11-03T21:13:31.630Z,69.84
2018-11-03T21:16:00.840Z,69.77
2018-11-03T21:18:31.396Z,70.08
2018-11-03T21:21:01.763Z,70.01
2018-11-03T21:23:30.880Z,69.92
2018-11-03T21:26:00.513Z,70.10
2018-11-03T21:28:29.508Z,70.33
2018-11-03T21:30:58.524Z,70.75
2018-11-03T21:33:28.239Z,70.71
2018-11-03T21:35:57.827Z,70.03
2018-11-03T21:38:26.773Z,70.43
2018-11-03T21:40:55.893Z,70.64
2018-11-03T21:43:25.469Z,70.24
2018-11-03T21:45:54.377Z,70.54
2018-11-03T21:48:23.400Z,70.61
2018-11-03T21:50:52.294Z,70.73
2018-11-03T21:56:50.733Z,70.91
2018-11-03T22:04:18.973Z,71.69
2018-11-03T22:06:48.130Z,71.90
2018-11-03T22:09:17.172Z,71.92
2018-11-03T22:11:48.390Z,71.88
2018-11-03T22:14:19.491Z,71.95
2018-11-03T22:16:48.812Z,71.38
2018-11-03T22:19:17.896Z,71.80
2018-11-03T22:21:47.052Z,71.33
2018-11-03T22:24:15.821Z,71.45
2018-11-03T22:26:44.817Z,71.56
2018-11-03T22:29:14.003Z,71.69
2018-11-03T22:31:43.029Z,71.82
2018-11-03T22:34:12.840Z,71.78
2018-11-03T22:36:41.788Z,71.83
2018-11-03T22:39:11.367Z,71.84
2018-11-03T22:41:40.813Z,72.24
2018-11-03T22:44:10.113Z,72.22
2018-11-03T22:46:42.026Z,72.31
2018-11-03T22:49:11.827Z,72.09
2018-11-03T22:51:40.820Z,72.34
2018-11-03T22:54:09.671Z,72.12
2018-11-03T22:56:38.918Z,72.56
2018-11-03T22:59:07.842Z,72.40
2018-11-03T23:01:36.711Z,72.65
2018-11-03T23:04:06.337Z,72.47
2018-11-03T23:06:36.453Z,72.52
2018-11-03T23:09:06.925Z,72.39
2018-11-03T23:11:58.050Z,72.50
2018-11-03T23:21:21.996Z,72.64
2018-11-03T23:23:50.856Z,72.90
2018-11-03T23:26:19.884Z,72.73
2018-11-03T23:28:48.900Z,72.71
2018-11-03T23:31:18.288Z,72.76
2018-11-03T23:40:51.293Z,73.40
2018-11-03T23:43:21.698Z,73.17
2018-11-03T23:45:53.399Z,73.16
2018-11-03T23:48:22.520Z,73.69
2018-11-03T23:50:53.276Z,73.51
2018-11-03T23:53:22.333Z,73.37
2018-11-03T23:58:47.863Z,73.33
